createdAt,value
2024-04-17T00:00:55.950Z,2101.00
2024-04-17T00:01:56.071Z,2064.00
2024-04-17T00:02:55.871Z,2056.00
2024-04-17T00:03:55.965Z,2051.00
2024-04-17T00:04:55.868Z,2003.00
2024-04-17T00:05:55.800Z,1955.00
2024-04-17T00:06:55.791Z,1962.00
2024-04-17T00:07:55.778Z,1938.00
2024-04-17T00:08:55.722Z,1927.00
2024-04-17T00:09:55.708Z,1942.00
2024-04-17T00:10:55.774Z,1911.00
2024-04-17T00:11:55.647Z,1879.00
2024-04-17T00:12:55.615Z,1908.00
2024-04-17T00:13:55.621Z,1889.00
2024-04-17T00:14:55.567Z,1862.00
2024-04-17T00:15:56.449Z,1847.00
2024-04-17T00:16:55.757Z,1806.00
2024-04-17T00:17:55.571Z,1785.00
2024-04-17T00:18:55.465Z,1809.00
2024-04-17T00:19:55.518Z,1752.00
2024-04-17T00:20:55.432Z,1780.00
2024-04-17T00:21:55.426Z,1780.00
2024-04-17T00:22:55.435Z,1786.00
2024-04-17T00:23:55.365Z,1796.00
2024-04-17T00:24:55.350Z,1776.00
2024-04-17T00:25:55.357Z,1760.00
2024-04-17T00:26:55.320Z,1777.00
2024-04-17T00:27:55.277Z,1761.00
2024-04-17T00:28:55.323Z,1754.00
2024-04-17T00:29:55.244Z,1744.00
2024-04-17T00:30:55.229Z,1757.00
2024-04-17T00:31:55.272Z,1743.00
2024-04-17T00:32:55.248Z,1773.00
2024-04-17T00:33:55.166Z,1745.00
2024-04-17T00:34:55.216Z,1750.00
2024-04-17T00:35:55.170Z,1747.00
2024-04-17T00:36:55.174Z,1769.00
2024-04-17T00:37:55.221Z,1761.00
2024-04-17T00:38:55.203Z,1782.00
2024-04-17T00:39:55.123Z,1762.00
2024-04-17T00:40:55.270Z,1790.00
2024-04-17T00:41:55.119Z,1764.00
2024-04-17T00:42:55.115Z,1763.00
2024-04-17T00:43:55.156Z,1778.00
2024-04-17T00:44:55.097Z,1735.00
2024-04-17T00:45:55.134Z,1768.00
2024-04-17T00:46:55.279Z,1752.00
2024-04-17T00:47:55.145Z,1753.00
2024-04-17T00:48:55.101Z,1755.00
2024-04-17T00:49:55.197Z,1773.00
2024-04-17T00:50:55.080Z,1742.00
2024-04-17T00:51:55.107Z,1760.00
2024-04-17T00:52:55.160Z,1754.00
2024-04-17T00:53:55.073Z,1754.00
2024-04-17T00:54:55.041Z,1756.00
2024-04-17T00:55:55.060Z,1757.00
2024-04-17T00:56:54.989Z,1765.00
2024-04-17T00:57:54.950Z,1768.00
2024-04-17T00:58:55.003Z,1762.00
2024-04-17T00:59:54.890Z,1759.00
2024-04-17T01:00:54.896Z,1760.00
2024-04-17T01:01:58.243Z,1766.00
2024-04-17T01:02:55.893Z,1766.00
2024-04-17T01:03:54.859Z,1768.00
2024-04-17T01:04:54.861Z,1759.00
2024-04-17T01:05:54.750Z,1766.00
2024-04-17T01:06:54.764Z,1766.00
2024-04-17T01:07:54.744Z,1751.00
2024-04-17T01:08:54.672Z,1769.00
2024-04-17T01:09:54.742Z,1763.00
2024-04-17T01:10:54.710Z,1768.00
2024-04-17T01:11:54.617Z,1768.00
2024-04-17T01:12:54.577Z,1802.00
2024-04-17T01:13:54.689Z,1776.00
2024-04-17T01:14:54.540Z,1790.00
2024-04-17T01:15:54.526Z,1785.00
2024-04-17T01:16:54.614Z,1794.00
2024-04-17T01:17:54.587Z,1813.00
2024-04-17T01:18:54.450Z,1800.00
2024-04-17T01:19:54.541Z,1803.00
2024-04-17T01:20:54.394Z,1787.00
2024-04-17T01:21:54.364Z,1816.00
2024-04-17T01:22:54.428Z,1803.00
2024-04-17T01:23:54.347Z,1797.00
2024-04-17T01:24:54.273Z,1815.00
2024-04-17T01:25:54.492Z,1798.00
2024-04-17T01:26:54.237Z,1789.00
2024-04-17T01:27:54.234Z,1790.00
2024-04-17T01:28:54.286Z,1797.00
2024-04-17T01:29:54.183Z,1805.00
2024-04-17T01:30:54.147Z,1796.00
2024-04-17T01:31:54.226Z,1828.00
2024-04-17T01:32:54.256Z,1837.00
2024-04-17T01:33:54.090Z,1848.00
2024-04-17T01:34:55.051Z,1814.00
2024-04-17T01:35:54.057Z,1830.00
2024-04-17T01:36:54.038Z,1831.00
2024-04-17T01:37:54.161Z,1831.00
2024-04-17T01:38:54.031Z,1840.00
2024-04-17T01:39:53.966Z,1842.00
2024-04-17T01:40:53.974Z,1816.00
2024-04-17T01:41:53.946Z,1841.00
2024-04-17T01:42:53.902Z,1876.00
2024-04-17T01:43:53.963Z,1854.00
2024-04-17T01:44:53.853Z,1867.00
2024-04-17T01:45:53.890Z,1826.00
2024-04-17T01:46:53.940Z,1866.00
2024-04-17T01:47:53.976Z,1861.00
2024-04-17T01:48:53.790Z,1846.00
2024-04-17T01:49:53.835Z,1847.00
2024-04-17T01:50:53.787Z,1882.00
2024-04-17T01:51:53.770Z,1896.00
2024-04-17T01:52:53.766Z,1879.00
2024-04-17T01:53:53.728Z,1879.00
2024-04-17T01:54:53.710Z,1880.00
2024-04-17T01:55:53.704Z,1888.00
2024-04-17T01:56:53.664Z,1893.00
2024-04-17T01:57:53.631Z,1900.00
2024-04-17T01:58:53.725Z,1913.00
2024-04-17T01:59:53.606Z,1942.00
2024-04-17T02:00:53.605Z,1905.00
2024-04-17T02:01:53.557Z,1920.00
2024-04-17T02:02:53.534Z,1917.00
2024-04-17T02:03:53.539Z,1933.00
2024-04-17T02:04:53.501Z,1909.00
2024-04-17T02:05:53.452Z,1940.00
2024-04-17T02:06:53.415Z,1922.00
2024-04-17T02:07:53.460Z,1931.00
2024-04-17T02:08:53.363Z,1936.00
2024-04-17T02:09:53.404Z,1939.00
2024-04-17T02:10:53.414Z,1942.00
2024-04-17T02:11:53.311Z,1950.00
2024-04-17T02:12:53.300Z,1959.00
2024-04-17T02:13:53.299Z,1954.00
2024-04-17T02:14:53.227Z,1955.00
2024-04-17T02:15:53.192Z,1929.00
2024-04-17T02:16:53.331Z,1956.00
2024-04-17T02:17:53.291Z,1960.00
2024-04-17T02:18:53.132Z,1962.00
2024-04-17T02:19:53.194Z,1995.00
2024-04-17T02:20:53.113Z,2000.00
2024-04-17T02:21:53.117Z,1998.00
2024-04-17T02:22:53.131Z,2001.00
2024-04-17T02:23:53.020Z,2020.00
2024-04-17T02:24:52.987Z,1980.00
2024-04-17T02:25:53.050Z,2002.00
2024-04-17T02:26:52.951Z,2018.00
2024-04-17T02:27:52.915Z,2018.00
2024-04-17T02:28:53.087Z,2027.00
2024-04-17T02:29:52.875Z,2039.00
2024-04-17T02:30:52.846Z,2052.00
2024-04-17T02:31:52.866Z,2029.00
2024-04-17T02:32:52.828Z,2030.00
2024-04-17T02:33:52.779Z,2041.00
2024-04-17T02:34:52.894Z,2048.00
2024-04-17T02:35:52.722Z,2055.00
2024-04-17T02:36:52.695Z,2052.00
2024-04-17T02:37:52.831Z,2064.00
2024-04-17T02:38:52.631Z,2085.00
2024-04-17T02:39:52.604Z,2080.00
2024-04-17T02:40:52.662Z,2066.00
2024-04-17T02:41:52.553Z,2107.00
2024-04-17T02:42:52.536Z,2099.00
2024-04-17T02:43:52.563Z,2117.00
2024-04-17T02:44:52.455Z,2109.00
2024-04-17T02:45:52.459Z,2091.00
2024-04-17T02:46:52.492Z,2115.00
2024-04-17T02:47:52.474Z,2133.00
2024-04-17T02:48:52.393Z,2117.00
2024-04-17T02:49:52.455Z,2115.00
2024-04-17T02:50:52.391Z,2118.00
2024-04-17T02:51:52.365Z,2169.00
2024-04-17T02:52:52.485Z,2165.00
2024-04-17T02:53:52.332Z,2154.00
2024-04-17T02:54:52.313Z,2168.00
2024-04-17T02:55:52.373Z,2128.00
2024-04-17T02:56:52.298Z,2160.00
2024-04-17T02:57:52.258Z,2169.00
2024-04-17T02:58:52.397Z,2178.00
2024-04-17T02:59:52.221Z,2172.00
2024-04-17T03:00:52.212Z,2184.00
2024-04-17T03:01:52.427Z,2201.00
2024-04-17T03:02:52.247Z,2212.00
2024-04-17T03:03:52.224Z,2178.00
2024-04-17T03:04:52.216Z,2222.00
2024-04-17T03:05:52.149Z,2211.00
2024-04-17T03:06:52.139Z,2205.00
2024-04-17T03:07:52.219Z,2206.00
2024-04-17T03:08:52.098Z,2210.00
2024-04-17T03:09:52.087Z,2225.00
2024-04-17T03:10:52.156Z,2209.00
2024-04-17T03:11:52.120Z,2257.00
2024-04-17T03:12:52.061Z,2239.00
2024-04-17T03:13:52.108Z,2224.00
2024-04-17T03:14:52.033Z,2223.00
2024-04-17T03:15:52.022Z,2256.00
2024-04-17T03:16:52.102Z,2228.00
2024-04-17T03:17:52.123Z,2247.00
2024-04-17T03:18:52.004Z,2252.00
2024-04-17T03:19:52.108Z,2226.00
2024-04-17T03:20:51.986Z,2212.00
2024-04-17T03:21:51.973Z,2186.00
2024-04-17T03:22:52.037Z,2153.00
2024-04-17T03:23:51.977Z,2112.00
2024-04-17T03:24:51.982Z,2049.00
2024-04-17T03:25:52.060Z,2002.00
2024-04-17T03:26:51.990Z,1951.00
2024-04-17T03:27:52.003Z,1931.00
2024-04-17T03:28:52.048Z,1881.00
2024-04-17T03:29:52.035Z,1837.00
2024-04-17T03:30:52.064Z,1798.00
2024-04-17T03:31:52.197Z,1753.00
2024-04-17T03:32:52.172Z,1719.00
2024-04-17T03:33:52.137Z,1699.00
2024-04-17T03:34:52.173Z,1677.00
2024-04-17T03:35:52.085Z,1649.00
2024-04-17T03:36:52.065Z,1631.00
2024-04-17T03:37:52.142Z,1610.00
2024-04-17T03:38:52.057Z,1575.00
2024-04-17T03:39:52.011Z,1558.00
2024-04-17T03:40:52.092Z,1542.00
2024-04-17T03:41:51.963Z,1511.00
2024-04-17T03:42:51.972Z,1507.00
2024-04-17T03:43:51.979Z,1481.00
2024-04-17T03:44:51.908Z,1470.00
2024-04-17T03:45:51.921Z,1464.00
2024-04-17T03:46:52.008Z,1436.00
2024-04-17T03:47:52.046Z,1421.00
2024-04-17T03:48:52.045Z,1411.00
2024-04-17T03:49:52.112Z,1402.00
2024-04-17T03:50:52.120Z,1405.00
2024-04-17T03:51:52.200Z,1389.00
2024-04-17T03:52:52.339Z,1362.00
2024-04-17T03:53:52.284Z,1353.00
2024-04-17T03:54:52.313Z,1331.00
2024-04-17T03:55:52.402Z,1329.00
2024-04-17T03:56:52.410Z,1326.00
2024-04-17T03:57:52.459Z,1324.00
2024-04-17T03:58:52.538Z,1330.00
2024-04-17T03:59:52.566Z,1338.00
2024-04-17T04:00:52.598Z,1334.00
2024-04-17T04:01:52.717Z,1350.00
2024-04-17T04:02:52.740Z,1361.00
2024-04-17T04:03:52.718Z,1377.00
2024-04-17T04:04:52.777Z,1375.00
2024-04-17T04:05:52.796Z,1386.00
2024-04-17T04:06:52.826Z,1403.00
2024-04-17T04:07:53.010Z,1406.00
2024-04-17T04:08:52.914Z,1421.00
2024-04-17T04:09:52.930Z,1433.00
2024-04-17T04:10:52.982Z,1450.00
2024-04-17T04:11:53.023Z,1448.00
2024-04-17T04:12:53.024Z,1466.00
2024-04-17T04:13:53.125Z,1478.00
2024-04-17T04:14:53.099Z,1472.00
2024-04-17T04:15:53.112Z,1498.00
2024-04-17T04:16:53.429Z,1509.00
2024-04-17T04:17:53.235Z,1518.00
2024-04-17T04:18:53.210Z,1518.00
2024-04-17T04:19:53.322Z,1522.00
2024-04-17T04:20:53.278Z,1547.00
2024-04-17T04:21:53.323Z,1556.00
2024-04-17T04:22:53.380Z,1570.00
2024-04-17T04:23:53.401Z,1559.00
2024-04-17T04:24:53.424Z,1554.00
2024-04-17T04:25:53.574Z,1555.00
2024-04-17T04:26:53.590Z,1556.00
2024-04-17T04:27:53.529Z,1553.00
2024-04-17T04:28:53.706Z,1552.00
2024-04-17T04:29:53.678Z,1539.00
2024-04-17T04:30:53.694Z,1547.00
2024-04-17T04:31:53.892Z,1541.00
2024-04-17T04:32:53.858Z,1540.00
2024-04-17T04:33:53.798Z,1525.00
2024-04-17T04:34:54.008Z,1518.00
2024-04-17T04:35:53.918Z,1511.00
2024-04-17T04:36:53.962Z,1503.00
2024-04-17T04:37:54.076Z,1494.00
2024-04-17T04:38:54.068Z,1493.00
2024-04-17T04:39:54.087Z,1476.00
2024-04-17T04:40:54.206Z,1487.00
2024-04-17T04:41:54.209Z,1492.00
2024-04-17T04:42:54.236Z,1506.00
2024-04-17T04:43:54.424Z,1505.00
2024-04-17T04:44:54.386Z,1517.00
2024-04-17T04:45:54.435Z,1525.00
2024-04-17T04:47:01.823Z,600.00
2024-04-17T04:48:01.822Z,600.00
2024-04-17T04:49:01.691Z,600.00
2024-04-17T04:50:01.725Z,600.00
2024-04-17T04:51:01.677Z,600.00
2024-04-17T04:52:01.652Z,600.00
2024-04-17T04:53:01.742Z,600.00
2024-04-17T04:54:01.619Z,600.00
2024-04-17T04:55:01.610Z,600.00
2024-04-17T04:56:01.624Z,600.00
2024-04-17T04:57:01.608Z,600.00
2024-04-17T04:58:01.591Z,600.00
2024-04-17T04:59:01.646Z,600.00
2024-04-17T05:00:01.673Z,600.00
2024-04-17T05:01:02.662Z,600.00
2024-04-17T05:02:01.853Z,600.00
2024-04-17T05:03:01.856Z,602.00
2024-04-17T05:04:01.963Z,601.00
2024-04-17T05:05:01.986Z,600.00
2024-04-17T05:06:01.985Z,597.00
2024-04-17T05:07:02.059Z,600.00
2024-04-17T05:08:02.321Z,601.00
2024-04-17T05:09:02.141Z,602.00
2024-04-17T05:10:02.208Z,600.00
2024-04-17T05:11:02.329Z,600.00
2024-04-17T05:12:02.315Z,600.00
2024-04-17T05:13:02.379Z,600.00
2024-04-17T05:14:02.483Z,600.00
2024-04-17T05:15:02.457Z,605.00
2024-04-17T05:16:02.550Z,601.00
2024-04-17T05:17:02.722Z,601.00
2024-04-17T05:18:02.736Z,607.00
2024-04-17T05:19:02.623Z,606.00
2024-04-17T05:20:02.674Z,598.00
2024-04-17T05:21:02.581Z,600.00
2024-04-17T05:22:02.601Z,600.00
2024-04-17T05:23:02.577Z,594.00
2024-04-17T05:24:02.528Z,597.00
2024-04-17T05:25:02.549Z,600.00
2024-04-17T05:26:02.587Z,600.00
2024-04-17T05:27:02.586Z,604.00
2024-04-17T05:28:02.659Z,600.00
2024-04-17T05:29:02.742Z,602.00
2024-04-17T05:30:02.758Z,600.00
2024-04-17T05:31:02.801Z,603.00
2024-04-17T05:32:02.869Z,603.00
2024-04-17T05:33:03.468Z,605.00
2024-04-17T05:34:02.917Z,606.00
2024-04-17T05:35:02.971Z,601.00
2024-04-17T05:36:03.885Z,600.00
2024-04-17T05:37:02.972Z,597.00
2024-04-17T05:38:03.011Z,590.00
2024-04-17T05:39:03.006Z,587.00
2024-04-17T05:40:02.919Z,581.00
2024-04-17T05:41:02.958Z,576.00
2024-04-17T05:42:02.901Z,576.00
2024-04-17T05:43:02.885Z,578.00
2024-04-17T05:44:02.911Z,580.00
2024-04-17T05:45:02.914Z,585.00
2024-04-17T05:46:02.831Z,588.00
2024-04-17T05:47:03.077Z,590.00
2024-04-17T05:48:02.961Z,590.00
2024-04-17T05:49:02.831Z,596.00
2024-04-17T05:50:05.347Z,603.00
2024-04-17T05:51:02.707Z,600.00
2024-04-17T05:52:02.718Z,600.00
2024-04-17T05:53:03.035Z,601.00
2024-04-17T05:54:02.665Z,601.00
2024-04-17T05:55:03.183Z,608.00
2024-04-17T05:56:02.784Z,613.00
2024-04-17T05:57:02.771Z,612.00
2024-04-17T05:58:02.665Z,613.00
2024-04-17T05:59:02.745Z,619.00
2024-04-17T06:00:02.682Z,620.00
2024-04-17T06:01:02.942Z,628.00
2024-04-17T06:02:02.767Z,629.00
2024-04-17T06:03:03.051Z,631.00
2024-04-17T06:04:02.831Z,638.00
2024-04-17T06:05:02.965Z,643.00
2024-04-17T06:06:02.949Z,653.00
2024-04-17T06:07:02.936Z,665.00
2024-04-17T06:08:03.172Z,679.00
2024-04-17T06:09:03.008Z,713.00
2024-04-17T06:10:03.051Z,737.00
2024-04-17T06:11:03.226Z,766.00
2024-04-17T06:12:03.125Z,792.00
2024-04-17T06:13:03.105Z,830.00
2024-04-17T06:15:03.184Z,906.00
2024-04-17T06:16:03.316Z,943.00
2024-04-17T06:17:03.247Z,988.00
2024-04-17T06:18:03.312Z,1021.00
2024-04-17T06:19:03.895Z,1060.00
2024-04-17T06:20:03.284Z,1102.00
2024-04-17T06:21:03.248Z,1144.00
2024-04-17T06:22:03.311Z,1169.00
2024-04-17T06:23:03.433Z,1221.00
2024-04-17T06:24:03.873Z,1245.00
2024-04-17T06:25:05.885Z,1281.00
2024-04-17T06:26:04.415Z,1303.00
2024-04-17T06:27:03.939Z,1315.00
2024-04-17T06:28:03.303Z,1346.00
2024-04-17T06:29:03.336Z,1366.00
2024-04-17T06:30:03.216Z,1392.00
2024-04-17T06:31:03.180Z,1413.00
2024-04-17T06:32:03.307Z,1450.00
2024-04-17T06:33:03.249Z,1473.00
2024-04-17T06:34:03.091Z,1485.00
2024-04-17T06:35:03.109Z,1473.00
2024-04-17T06:36:03.036Z,1488.00
2024-04-17T06:37:03.000Z,1488.00
2024-04-17T06:38:03.181Z,1489.00
2024-04-17T06:39:03.029Z,1495.00
2024-04-17T06:40:02.925Z,1515.00
2024-04-17T06:41:04.275Z,1534.00
2024-04-17T06:42:03.565Z,1599.00
2024-04-17T06:43:02.863Z,1618.00
2024-04-17T06:44:02.838Z,1651.00
2024-04-17T06:45:02.781Z,1663.00
2024-04-17T06:46:02.763Z,1671.00
2024-04-17T06:47:02.790Z,1685.00
2024-04-17T06:48:03.178Z,1685.00
2024-04-17T06:49:02.634Z,1662.00
2024-04-17T06:50:02.797Z,1661.00
2024-04-17T06:51:02.578Z,1647.00
2024-04-17T06:52:02.567Z,1642.00
2024-04-17T06:53:02.624Z,1632.00
2024-04-17T06:54:02.543Z,1611.00
2024-04-17T06:55:02.506Z,1603.00
2024-04-17T06:56:02.588Z,1613.00
2024-04-17T06:57:02.584Z,1614.00
2024-04-17T06:58:02.414Z,1616.00
2024-04-17T06:59:02.516Z,1608.00
2024-04-17T07:00:02.410Z,1605.00
2024-04-17T07:01:02.382Z,1590.00
2024-04-17T07:02:02.399Z,1586.00
2024-04-17T07:03:04.825Z,1575.00
2024-04-17T07:04:02.281Z,1574.00
2024-04-17T07:05:02.986Z,1574.00
2024-04-17T07:06:02.230Z,1542.00
2024-04-17T07:07:02.123Z,1558.00
2024-04-17T07:08:02.203Z,1537.00
2024-04-17T07:09:02.079Z,1556.00
2024-04-17T07:10:02.054Z,1559.00
2024-04-17T07:11:02.027Z,1571.00
2024-04-17T07:12:02.123Z,1544.00
2024-04-17T07:13:01.993Z,1552.00
2024-04-17T07:14:02.001Z,1530.00
2024-04-17T07:15:01.935Z,1550.00
2024-04-17T07:16:01.857Z,1563.00
2024-04-17T07:17:01.909Z,1568.00
2024-04-17T07:18:01.966Z,1554.00
2024-04-17T07:19:02.462Z,1505.00
2024-04-17T07:20:01.973Z,1506.00
2024-04-17T07:21:01.878Z,1493.00
2024-04-17T07:22:01.833Z,1475.00
2024-04-17T07:23:02.077Z,1470.00
2024-04-17T07:24:01.776Z,1471.00
2024-04-17T07:25:02.451Z,1446.00
2024-04-17T07:26:01.871Z,1452.00
2024-04-17T07:27:02.410Z,1425.00
2024-04-17T07:28:01.654Z,1426.00
2024-04-17T07:29:01.667Z,1391.00
2024-04-17T07:30:01.637Z,1383.00
2024-04-17T07:31:01.608Z,1356.00
2024-04-17T07:32:01.657Z,1320.00
2024-04-17T07:33:01.647Z,1292.00
2024-04-17T07:34:01.630Z,1261.00
2024-04-17T07:35:03.419Z,1222.00
2024-04-17T07:36:01.691Z,1191.00
2024-04-17T07:37:01.896Z,1174.00
2024-04-17T07:38:01.733Z,1163.00
2024-04-17T07:39:01.912Z,1136.00
2024-04-17T07:40:01.697Z,1099.00
2024-04-17T07:41:01.756Z,1063.00
2024-04-17T07:42:01.606Z,1000.00
2024-04-17T07:43:01.578Z,972.00
2024-04-17T07:44:01.625Z,946.00
2024-04-17T07:45:01.559Z,940.00
2024-04-17T07:46:01.496Z,923.00
2024-04-17T07:47:01.537Z,912.00
2024-04-17T07:48:03.401Z,896.00
2024-04-17T07:49:01.412Z,890.00
2024-04-17T07:50:01.453Z,895.00
2024-04-17T07:51:01.347Z,906.00
2024-04-17T07:52:01.341Z,880.00
2024-04-17T07:53:01.372Z,872.00
2024-04-17T07:54:01.260Z,862.00
2024-04-17T07:55:02.069Z,872.00
2024-04-17T07:56:01.332Z,894.00
2024-04-17T07:57:01.163Z,899.00
2024-04-17T07:58:01.468Z,901.00
2024-04-17T07:59:01.169Z,923.00
2024-04-17T08:00:01.056Z,885.00
2024-04-17T08:01:01.091Z,906.00
2024-04-17T08:02:01.367Z,914.00
2024-04-17T08:03:01.000Z,890.00
2024-04-17T08:04:00.944Z,890.00
2024-04-17T08:05:00.902Z,939.00
2024-04-17T08:06:00.914Z,961.00
2024-04-17T08:07:00.893Z,962.00
2024-04-17T08:08:00.993Z,965.00
2024-04-17T08:09:00.769Z,947.00
2024-04-17T08:10:00.767Z,944.00
2024-04-17T08:11:00.758Z,934.00
2024-04-17T08:12:00.727Z,926.00
2024-04-17T08:13:00.659Z,926.00
2024-04-17T08:14:00.735Z,928.00
2024-04-17T08:15:00.580Z,915.00
2024-04-17T08:16:00.652Z,897.00
2024-04-17T08:17:00.780Z,900.00
2024-04-17T08:18:00.675Z,898.00
2024-04-17T08:19:00.519Z,910.00
2024-04-17T08:20:00.624Z,917.00
2024-04-17T08:21:00.460Z,906.00
2024-04-17T08:22:00.440Z,917.00
2024-04-17T08:23:00.509Z,898.00
2024-04-17T08:24:00.308Z,908.00
2024-04-17T08:25:00.353Z,922.00
2024-04-17T08:26:00.429Z,911.00
2024-04-17T08:27:00.510Z,914.00
2024-04-17T08:28:00.687Z,905.00
2024-04-17T08:29:00.743Z,925.00
2024-04-17T08:30:00.456Z,894.00
2024-04-17T08:31:00.430Z,914.00
2024-04-17T08:32:00.538Z,925.00
2024-04-17T08:33:00.751Z,906.00
2024-04-17T08:34:00.761Z,893.00
2024-04-17T08:35:00.605Z,869.00
2024-04-17T08:36:00.552Z,837.00
2024-04-17T08:37:00.442Z,803.00
2024-04-17T08:38:00.562Z,754.00
2024-04-17T08:39:01.468Z,720.00
2024-04-17T08:40:01.432Z,691.00
2024-04-17T08:41:00.866Z,664.00
2024-04-17T08:42:00.628Z,656.00
2024-04-17T08:43:00.556Z,641.00
2024-04-17T08:44:00.650Z,651.00
2024-04-17T08:45:00.554Z,666.00
2024-04-17T08:46:00.518Z,683.00
2024-04-17T08:47:00.602Z,687.00
2024-04-17T08:48:00.734Z,680.00
2024-04-17T08:49:00.463Z,664.00
2024-04-17T08:50:00.576Z,652.00
2024-04-17T08:51:00.704Z,636.00
2024-04-17T08:52:00.530Z,618.00
2024-04-17T08:53:00.679Z,601.00
2024-04-17T08:54:00.406Z,600.00
2024-04-17T08:55:00.424Z,587.00
2024-04-17T08:56:00.732Z,567.00
2024-04-17T08:57:00.423Z,563.00
2024-04-17T08:58:00.541Z,549.00
2024-04-17T08:59:00.492Z,558.00
2024-04-17T09:00:00.335Z,560.00
2024-04-17T09:01:00.316Z,563.00
2024-04-17T09:02:00.386Z,561.00
2024-04-17T09:03:00.341Z,569.00
2024-04-17T09:04:00.207Z,564.00
2024-04-17T09:05:00.472Z,562.00
2024-04-17T09:06:00.967Z,563.00
2024-04-17T09:07:00.127Z,586.00
2024-04-17T09:08:00.202Z,604.00
2024-04-17T09:09:00.077Z,600.00
2024-04-17T09:10:00.147Z,604.00
2024-04-17T09:11:00.245Z,611.00
2024-04-17T09:12:00.137Z,616.00
2024-04-17T09:13:00.307Z,622.00
2024-04-17T09:14:00.301Z,620.00
2024-04-17T09:15:00.248Z,625.00
2024-04-17T09:16:00.298Z,623.00
2024-04-17T09:17:00.399Z,622.00
2024-04-17T09:18:00.369Z,622.00
2024-04-17T09:19:00.239Z,622.00
2024-04-17T09:20:00.430Z,622.00
2024-04-17T09:21:00.183Z,622.00
2024-04-17T09:22:00.957Z,624.00
2024-04-17T09:23:00.258Z,625.00
2024-04-17T09:24:00.123Z,637.00
2024-04-17T09:25:00.063Z,646.00
2024-04-17T09:26:00.267Z,646.00
2024-04-17T09:27:00.111Z,647.00
2024-04-17T09:28:00.014Z,652.00
2024-04-17T09:29:00.108Z,662.00
2024-04-17T09:29:59.918Z,692.00
2024-04-17T09:30:59.937Z,724.00
2024-04-17T09:31:59.923Z,726.00
2024-04-17T09:33:00.206Z,726.00
2024-04-17T09:33:59.859Z,736.00
2024-04-17T09:34:59.856Z,756.00
2024-04-17T09:36:00.806Z,801.00
2024-04-17T09:37:02.523Z,873.00
2024-04-17T09:37:59.769Z,917.00
2024-04-17T09:39:00.493Z,944.00
2024-04-17T09:39:59.624Z,957.00
2024-04-17T09:40:59.631Z,963.00
2024-04-17T09:41:59.557Z,965.00
2024-04-17T09:43:06.166Z,933.00
2024-04-17T09:44:00.522Z,880.00
2024-04-17T09:44:59.437Z,845.00
2024-04-17T09:45:59.503Z,789.00
2024-04-17T09:46:59.824Z,721.00
2024-04-17T09:47:59.566Z,664.00
2024-04-17T09:48:59.527Z,647.00
2024-04-17T09:49:59.447Z,618.00
2024-04-17T09:50:59.341Z,602.00
2024-04-17T09:51:59.328Z,581.00
2024-04-17T09:52:59.394Z,567.00
2024-04-17T09:53:59.306Z,542.00
2024-04-17T09:54:59.355Z,537.00
2024-04-17T09:55:59.360Z,519.00
2024-04-17T09:56:59.301Z,539.00
2024-04-17T09:57:59.269Z,567.00
2024-04-17T09:59:06.407Z,597.00
2024-04-17T10:00:00.283Z,587.00
2024-04-17T10:00:59.221Z,583.00
2024-04-17T10:01:59.318Z,576.00
2024-04-17T10:02:59.235Z,576.00
2024-04-17T10:03:59.213Z,579.00
2024-04-17T10:04:59.175Z,571.00
2024-04-17T10:05:59.082Z,564.00
2024-04-17T10:06:59.055Z,591.00
2024-04-17T10:07:59.134Z,598.00
2024-04-17T10:08:59.045Z,600.00
2024-04-17T10:09:59.008Z,602.00
2024-04-17T10:10:59.056Z,600.00
2024-04-17T10:11:59.041Z,601.00
2024-04-17T10:12:58.997Z,604.00
2024-04-17T10:13:59.016Z,602.00
2024-04-17T10:14:58.983Z,604.00
2024-04-17T10:15:58.951Z,605.00
2024-04-17T10:16:59.062Z,610.00
2024-04-17T10:17:59.108Z,596.00
2024-04-17T10:18:59.118Z,600.00
2024-04-17T10:19:59.178Z,600.00
2024-04-17T10:20:59.227Z,600.00
2024-04-17T10:21:59.246Z,600.00
2024-04-17T10:22:59.339Z,600.00
2024-04-17T10:23:59.507Z,598.00
2024-04-17T10:24:59.374Z,601.00
2024-04-17T10:25:59.431Z,600.00
2024-04-17T10:26:59.362Z,600.00
2024-04-17T10:27:59.379Z,598.00
2024-04-17T10:28:59.434Z,600.00
2024-04-17T10:29:59.398Z,600.00
2024-04-17T10:30:59.426Z,598.00
2024-04-17T10:31:59.632Z,600.00
2024-04-17T10:32:59.630Z,598.00
2024-04-17T10:33:59.533Z,600.00
2024-04-17T10:34:59.693Z,600.00
2024-04-17T10:35:59.647Z,602.00
2024-04-17T10:36:59.778Z,600.00
2024-04-17T10:38:02.150Z,603.00
2024-04-17T10:38:59.864Z,578.00
2024-04-17T10:39:59.828Z,563.00
2024-04-17T10:40:59.943Z,549.00
2024-04-17T10:41:59.880Z,540.00
2024-04-17T10:42:59.892Z,534.00
2024-04-17T10:44:01.033Z,559.00
2024-04-17T10:44:59.930Z,589.00
2024-04-17T10:45:59.966Z,602.00
2024-04-17T10:47:00.048Z,601.00
2024-04-17T10:48:00.060Z,600.00
2024-04-17T10:49:00.414Z,600.00
2024-04-17T10:50:00.787Z,604.00
2024-04-17T10:51:00.046Z,606.00
2024-04-17T10:52:01.002Z,600.00
2024-04-17T10:53:00.194Z,599.00
2024-04-17T10:54:00.157Z,599.00
2024-04-17T10:55:00.210Z,601.00
2024-04-17T10:56:00.321Z,603.00
2024-04-17T10:57:00.194Z,602.00
2024-04-17T10:58:00.220Z,600.00
2024-04-17T10:59:00.293Z,607.00
2024-04-17T11:00:00.415Z,603.00
2024-04-17T11:01:00.359Z,602.00
2024-04-17T11:02:00.443Z,610.00
2024-04-17T11:03:00.410Z,608.00
2024-04-17T11:04:00.523Z,614.00
2024-04-17T11:05:00.440Z,613.00
2024-04-17T11:06:02.750Z,621.00
2024-04-17T11:07:00.450Z,621.00
2024-04-17T11:08:00.561Z,623.00
2024-04-17T11:09:05.185Z,626.00
2024-04-17T11:10:01.532Z,622.00
2024-04-17T11:11:00.604Z,625.00
2024-04-17T11:12:00.549Z,631.00
2024-04-17T11:13:00.463Z,648.00
2024-04-17T11:14:00.660Z,663.00
2024-04-17T11:15:00.670Z,673.00
2024-04-17T11:16:00.548Z,697.00
2024-04-17T11:17:00.689Z,707.00
2024-04-17T11:18:00.633Z,720.00
2024-04-17T11:19:00.701Z,739.00
2024-04-17T11:20:00.736Z,756.00
2024-04-17T11:21:00.651Z,789.00
2024-04-17T11:22:00.624Z,821.00
2024-04-17T11:23:00.669Z,840.00
2024-04-17T11:24:00.689Z,881.00
2024-04-17T11:25:00.882Z,896.00
2024-04-17T11:26:00.865Z,949.00
2024-04-17T11:27:00.916Z,986.00
2024-04-17T11:28:00.762Z,1029.00
2024-04-17T11:29:01.778Z,1063.00
2024-04-17T11:30:01.048Z,1101.00
2024-04-17T11:31:00.970Z,1156.00
2024-04-17T11:32:01.599Z,1166.00
2024-04-17T11:33:01.071Z,1175.00
2024-04-17T11:34:01.075Z,1181.00
2024-04-17T11:35:01.151Z,1181.00
2024-04-17T11:36:02.048Z,1187.00
2024-04-17T11:37:01.077Z,1212.00
2024-04-17T11:38:01.169Z,1262.00
2024-04-17T11:39:01.093Z,1344.00
2024-04-17T11:40:01.141Z,1375.00
2024-04-17T11:41:01.089Z,1409.00
2024-04-17T11:42:01.054Z,1447.00
2024-04-17T11:43:01.048Z,1464.00
2024-04-17T11:44:01.154Z,1505.00
2024-04-17T11:45:01.039Z,1541.00
2024-04-17T11:46:01.037Z,1573.00
2024-04-17T11:47:01.174Z,1600.00
2024-04-17T11:48:01.226Z,1638.00
2024-04-17T11:49:01.562Z,1650.00
2024-04-17T11:50:01.290Z,1678.00
2024-04-17T11:51:01.299Z,1672.00
2024-04-17T11:52:01.298Z,1695.00
2024-04-17T11:53:01.493Z,1682.00
2024-04-17T11:54:01.436Z,1665.00
2024-04-17T11:55:01.443Z,1663.00
2024-04-17T11:56:01.496Z,1632.00
2024-04-17T11:57:01.416Z,1612.00
2024-04-17T11:58:01.427Z,1593.00
2024-04-17T11:59:01.545Z,1560.00
2024-04-17T12:00:01.447Z,1538.00
2024-04-17T12:01:01.522Z,1513.00
2024-04-17T12:02:01.494Z,1491.00
2024-04-17T12:03:01.482Z,1479.00
2024-04-17T12:04:01.521Z,1446.00
2024-04-17T12:05:01.560Z,1443.00
2024-04-17T12:06:01.481Z,1447.00
2024-04-17T12:07:01.629Z,1425.00
2024-04-17T12:08:01.589Z,1429.00
2024-04-17T12:09:01.494Z,1425.00
2024-04-17T12:10:01.478Z,1425.00
2024-04-17T12:11:01.633Z,1430.00
2024-04-17T12:12:01.508Z,1447.00
2024-04-17T12:13:01.465Z,1483.00
2024-04-17T12:14:01.571Z,1429.00
2024-04-17T12:15:01.696Z,1429.00
2024-04-17T12:16:01.520Z,1448.00
2024-04-17T12:17:01.488Z,1431.00